Mountain View, California
Current Conditions -  °F | °C
As of 7:56 AM on Friday 24 Oct 2014 (Local Time) from KNUQ Reporting Station
Clear Clear  
Wind Chill: 56°   Ceiling: Unl
Heat Index: 56°   Visibility: 10mi
Dew Point: 54°   Wind: 0mph
Humidity: 93%   Direction: NA
Pressure: 29.97"   Gusts: NA
Location:  37.39°N, 122.08°W
Report Text: KNUQ 241456Z 00000KT 10SM CLR 13/12 A2997 RMK AO2 SLP151 T01330122 53003
Loading
Personal Weather Stations






























Interactive Weather Map
Tropical Storm Tracking
New forecast layout! Learn more

10-Day Weather Forecast

Advertisements
Track Severe Weather on mobile